sensor_id;sensor_type;location;lat;lon;timestamp;P1;durP1;ratioP1;P2;durP2;ratioP2
16246;SDS011;8231;50.866;7.944;2022-12-20T00:00:17;52.95;;;27.65;;
16246;SDS011;8231;50.866;7.944;2022-12-20T00:02:46;45.65;;;28.63;;
16246;SDS011;8231;50.866;7.944;2022-12-20T00:05:14;57.55;;;28.95;;
16246;SDS011;8231;50.866;7.944;2022-12-20T00:07:42;64.03;;;30.05;;
16246;SDS011;8231;50.866;7.944;2022-12-20T00:10:10;53.80;;;30.08;;
16246;SDS011;8231;50.866;7.944;2022-12-20T00:12:38;48.88;;;28.02;;
16246;SDS011;8231;50.866;7.944;2022-12-20T00:15:07;77.22;;;30.02;;
16246;SDS011;8231;50.866;7.944;2022-12-20T00:17:37;53.05;;;29.42;;
16246;SDS011;8231;50.866;7.944;2022-12-20T00:20:05;47.40;;;24.80;;
16246;SDS011;8231;50.866;7.944;2022-12-20T00:22:34;50.30;;;26.10;;
16246;SDS011;8231;50.866;7.944;2022-12-20T00:25:03;48.38;;;23.17;;
16246;SDS011;8231;50.866;7.944;2022-12-20T00:27:31;33.28;;;22.23;;
16246;SDS011;8231;50.866;7.944;2022-12-20T00:29:59;51.03;;;22.60;;
16246;SDS011;8231;50.866;7.944;2022-12-20T00:32:28;36.85;;;19.88;;
16246;SDS011;8231;50.866;7.944;2022-12-20T00:34:57;49.85;;;22.33;;
16246;SDS011;8231;50.866;7.944;2022-12-20T00:37:26;57.03;;;23.00;;
16246;SDS011;8231;50.866;7.944;2022-12-20T00:39:54;50.20;;;22.02;;
16246;SDS011;8231;50.866;7.944;2022-12-20T00:42:22;49.65;;;23.35;;
16246;SDS011;8231;50.866;7.944;2022-12-20T00:44:50;74.70;;;23.58;;
16246;SDS011;8231;50.866;7.944;2022-12-20T00:47:18;40.90;;;19.33;;
16246;SDS011;8231;50.866;7.944;2022-12-20T00:49:47;39.72;;;19.17;;
16246;SDS011;8231;50.866;7.944;2022-12-20T00:52:16;36.63;;;19.35;;
16246;SDS011;8231;50.866;7.944;2022-12-20T00:54:44;34.92;;;18.83;;
16246;SDS011;8231;50.866;7.944;2022-12-20T00:57:12;34.88;;;20.50;;
16246;SDS011;8231;50.866;7.944;2022-12-20T00:59:40;38.33;;;19.35;;
16246;SDS011;8231;50.866;7.944;2022-12-20T01:02:08;36.13;;;19.42;;
16246;SDS011;8231;50.866;7.944;2022-12-20T01:04:37;44.28;;;20.90;;
16246;SDS011;8231;50.866;7.944;2022-12-20T01:07:05;41.72;;;20.27;;
16246;SDS011;8231;50.866;7.944;2022-12-20T01:09:34;41.67;;;20.27;;
16246;SDS011;8231;50.866;7.944;2022-12-20T01:12:02;36.72;;;19.83;;
16246;SDS011;8231;50.866;7.944;2022-12-20T01:14:30;31.48;;;17.77;;
16246;SDS011;8231;50.866;7.944;2022-12-20T01:16:58;37.88;;;19.35;;
16246;SDS011;8231;50.866;7.944;2022-12-20T01:19:27;38.25;;;19.52;;
16246;SDS011;8231;50.866;7.944;2022-12-20T01:21:55;98.60;;;25.65;;
16246;SDS011;8231;50.866;7.944;2022-12-20T01:24:23;36.55;;;18.42;;
16246;SDS011;8231;50.866;7.944;2022-12-20T01:26:53;48.53;;;22.10;;
16246;SDS011;8231;50.866;7.944;2022-12-20T01:29:21;39.60;;;18.70;;
16246;SDS011;8231;50.866;7.944;2022-12-20T01:31:49;37.55;;;19.13;;
16246;SDS011;8231;50.866;7.944;2022-12-20T01:34:19;57.30;;;19.80;;
16246;SDS011;8231;50.866;7.944;2022-12-20T01:36:47;40.22;;;18.30;;
16246;SDS011;8231;50.866;7.944;2022-12-20T01:39:16;34.80;;;20.00;;
16246;SDS011;8231;50.866;7.944;2022-12-20T01:41:44;42.58;;;19.73;;
16246;SDS011;8231;50.866;7.944;2022-12-20T01:47:21;34.67;;;17.92;;
16246;SDS011;8231;50.866;7.944;2022-12-20T01:49:51;41.88;;;17.98;;
16246;SDS011;8231;50.866;7.944;2022-12-20T01:52:25;40.05;;;17.05;;
16246;SDS011;8231;50.866;7.944;2022-12-20T01:54:57;41.35;;;15.77;;
16246;SDS011;8231;50.866;7.944;2022-12-20T01:57:31;42.60;;;17.80;;
16246;SDS011;8231;50.866;7.944;2022-12-20T02:00:06;51.22;;;16.23;;
16246;SDS011;8231;50.866;7.944;2022-12-20T02:02:39;54.13;;;17.27;;
16246;SDS011;8231;50.866;7.944;2022-12-20T02:05:09;110.55;;;21.85;;
16246;SDS011;8231;50.866;7.944;2022-12-20T02:07:43;69.20;;;16.05;;
16246;SDS011;8231;50.866;7.944;2022-12-20T02:10:14;51.65;;;16.38;;
16246;SDS011;8231;50.866;7.944;2022-12-20T02:12:44;80.95;;;17.48;;
16246;SDS011;8231;50.866;7.944;2022-12-20T02:15:23;41.78;;;16.17;;
16246;SDS011;8231;50.866;7.944;2022-12-20T02:20:52;43.45;;;16.42;;
16246;SDS011;8231;50.866;7.944;2022-12-20T02:23:57;48.78;;;19.23;;
16246;SDS011;8231;50.866;7.944;2022-12-20T02:26:56;45.55;;;19.10;;
16246;SDS011;8231;50.866;7.944;2022-12-20T02:30:03;44.00;;;18.00;;
16246;SDS011;8231;50.866;7.944;2022-12-20T02:32:38;44.50;;;17.48;;
16246;SDS011;8231;50.866;7.944;2022-12-20T02:35:12;50.38;;;18.05;;
16246;SDS011;8231;50.866;7.944;2022-12-20T02:37:46;45.50;;;17.60;;
16246;SDS011;8231;50.866;7.944;2022-12-20T02:40:16;56.97;;;18.58;;
16246;SDS011;8231;50.866;7.944;2022-12-20T02:42:48;39.42;;;17.95;;
16246;SDS011;8231;50.866;7.944;2022-12-20T02:45:21;61.40;;;17.85;;
16246;SDS011;8231;50.866;7.944;2022-12-20T02:47:54;33.55;;;16.38;;
16246;SDS011;8231;50.866;7.944;2022-12-20T02:50:29;41.03;;;18.45;;
16246;SDS011;8231;50.866;7.944;2022-12-20T02:53:01;34.08;;;17.42;;
16246;SDS011;8231;50.866;7.944;2022-12-20T02:55:32;31.10;;;16.13;;
16246;SDS011;8231;50.866;7.944;2022-12-20T02:58:09;62.33;;;18.48;;
16246;SDS011;8231;50.866;7.944;2022-12-20T03:00:45;42.47;;;16.60;;
16246;SDS011;8231;50.866;7.944;2022-12-20T03:03:15;43.88;;;17.98;;
16246;SDS011;8231;50.866;7.944;2022-12-20T03:05:52;47.63;;;17.83;;
16246;SDS011;8231;50.866;7.944;2022-12-20T03:08:22;91.95;;;20.10;;
16246;SDS011;8231;50.866;7.944;2022-12-20T03:10:51;38.55;;;16.27;;
16246;SDS011;8231;50.866;7.944;2022-12-20T03:13:20;45.08;;;17.65;;
16246;SDS011;8231;50.866;7.944;2022-12-20T03:15:56;35.55;;;16.02;;
16246;SDS011;8231;50.866;7.944;2022-12-20T03:18:24;30.70;;;15.95;;
16246;SDS011;8231;50.866;7.944;2022-12-20T03:20:52;32.80;;;15.40;;
16246;SDS011;8231;50.866;7.944;2022-12-20T03:23:20;38.83;;;15.77;;
16246;SDS011;8231;50.866;7.944;2022-12-20T03:25:49;40.42;;;15.90;;
16246;SDS011;8231;50.866;7.944;2022-12-20T03:28:28;52.08;;;16.52;;
16246;SDS011;8231;50.866;7.944;2022-12-20T03:30:57;41.97;;;15.60;;
16246;SDS011;8231;50.866;7.944;2022-12-20T03:33:26;55.72;;;19.42;;
16246;SDS011;8231;50.866;7.944;2022-12-20T03:35:56;32.08;;;15.27;;
16246;SDS011;8231;50.866;7.944;2022-12-20T03:38:24;39.47;;;17.30;;
16246;SDS011;8231;50.866;7.944;2022-12-20T03:40:52;41.05;;;16.25;;
16246;SDS011;8231;50.866;7.944;2022-12-20T03:43:21;50.97;;;18.55;;
16246;SDS011;8231;50.866;7.944;2022-12-20T03:45:49;36.03;;;18.20;;
16246;SDS011;8231;50.866;7.944;2022-12-20T03:48:20;57.25;;;19.33;;
16246;SDS011;8231;50.866;7.944;2022-12-20T03:50:48;49.45;;;19.00;;
16246;SDS011;8231;50.866;7.944;2022-12-20T03:53:17;52.05;;;21.13;;
16246;SDS011;8231;50.866;7.944;2022-12-20T03:55:45;60.08;;;19.70;;
16246;SDS011;8231;50.866;7.944;2022-12-20T03:58:14;58.55;;;21.52;;
16246;SDS011;8231;50.866;7.944;2022-12-20T04:00:42;57.08;;;22.42;;
16246;SDS011;8231;50.866;7.944;2022-12-20T04:03:30;40.08;;;15.88;;
16246;SDS011;8231;50.866;7.944;2022-12-20T04:05:58;37.45;;;16.75;;
16246;SDS011;8231;50.866;7.944;2022-12-20T04:08:26;44.33;;;17.15;;
16246;SDS011;8231;50.866;7.944;2022-12-20T04:10:54;43.30;;;17.73;;
16246;SDS011;8231;50.866;7.944;2022-12-20T04:14:04;52.17;;;21.20;;
16246;SDS011;8231;50.866;7.944;2022-12-20T04:16:32;46.92;;;19.35;;
16246;SDS011;8231;50.866;7.944;2022-12-20T04:19:02;49.20;;;20.92;;
16246;SDS011;8231;50.866;7.944;2022-12-20T04:21:35;33.33;;;16.67;;
16246;SDS011;8231;50.866;7.944;2022-12-20T04:24:04;45.58;;;16.98;;
16246;SDS011;8231;50.866;7.944;2022-12-20T04:26:45;40.08;;;17.00;;
16246;SDS011;8231;50.866;7.944;2022-12-20T04:29:15;41.30;;;17.13;;
16246;SDS011;8231;50.866;7.944;2022-12-20T04:31:44;57.47;;;19.70;;
16246;SDS011;8231;50.866;7.944;2022-12-20T04:34:14;41.80;;;16.98;;
16246;SDS011;8231;50.866;7.944;2022-12-20T04:36:42;54.08;;;18.05;;
16246;SDS011;8231;50.866;7.944;2022-12-20T04:39:17;42.63;;;16.65;;
16246;SDS011;8231;50.866;7.944;2022-12-20T04:42:14;37.35;;;16.95;;
16246;SDS011;8231;50.866;7.944;2022-12-20T04:44:43;43.45;;;21.52;;
16246;SDS011;8231;50.866;7.944;2022-12-20T04:47:13;54.65;;;19.33;;
16246;SDS011;8231;50.866;7.944;2022-12-20T04:49:43;38.80;;;18.23;;
16246;SDS011;8231;50.866;7.944;2022-12-20T04:52:11;59.78;;;18.95;;
16246;SDS011;8231;50.866;7.944;2022-12-20T04:54:57;46.83;;;18.63;;
16246;SDS011;8231;50.866;7.944;2022-12-20T04:57:29;39.42;;;18.65;;
16246;SDS011;8231;50.866;7.944;2022-12-20T04:59:58;45.08;;;18.30;;
16246;SDS011;8231;50.866;7.944;2022-12-20T05:02:26;46.10;;;18.42;;
16246;SDS011;8231;50.866;7.944;2022-12-20T05:05:02;71.30;;;21.23;;
16246;SDS011;8231;50.866;7.944;2022-12-20T05:07:36;39.38;;;17.33;;
16246;SDS011;8231;50.866;7.944;2022-12-20T05:10:05;49.67;;;19.10;;
16246;SDS011;8231;50.866;7.944;2022-12-20T05:12:33;41.67;;;18.55;;
16246;SDS011;8231;50.866;7.944;2022-12-20T05:15:03;48.63;;;19.30;;
16246;SDS011;8231;50.866;7.944;2022-12-20T05:17:33;37.45;;;18.60;;
16246;SDS011;8231;50.866;7.944;2022-12-20T05:20:04;44.78;;;20.50;;
16246;SDS011;8231;50.866;7.944;2022-12-20T05:22:33;50.70;;;25.42;;
16246;SDS011;8231;50.866;7.944;2022-12-20T05:25:19;60.22;;;25.13;;
16246;SDS011;8231;50.866;7.944;2022-12-20T05:28:06;50.28;;;20.40;;
16246;SDS011;8231;50.866;7.944;2022-12-20T05:30:35;55.75;;;24.83;;
16246;SDS011;8231;50.866;7.944;2022-12-20T05:33:04;48.53;;;24.48;;
16246;SDS011;8231;50.866;7.944;2022-12-20T05:35:34;54.13;;;25.30;;
16246;SDS011;8231;50.866;7.944;2022-12-20T05:38:06;60.75;;;25.63;;
16246;SDS011;8231;50.866;7.944;2022-12-20T05:40:35;50.40;;;25.30;;
16246;SDS011;8231;50.866;7.944;2022-12-20T05:43:03;50.10;;;23.15;;
16246;SDS011;8231;50.866;7.944;2022-12-20T05:45:44;58.25;;;23.67;;
16246;SDS011;8231;50.866;7.944;2022-12-20T05:48:14;50.88;;;25.52;;
16246;SDS011;8231;50.866;7.944;2022-12-20T05:50:44;50.25;;;23.02;;
16246;SDS011;8231;50.866;7.944;2022-12-20T05:53:39;65.70;;;21.70;;
16246;SDS011;8231;50.866;7.944;2022-12-20T05:56:08;44.08;;;21.15;;
16246;SDS011;8231;50.866;7.944;2022-12-20T05:58:37;58.88;;;23.85;;
16246;SDS011;8231;50.866;7.944;2022-12-20T06:01:06;59.50;;;22.75;;
16246;SDS011;8231;50.866;7.944;2022-12-20T06:03:36;52.35;;;21.88;;
16246;SDS011;8231;50.866;7.944;2022-12-20T06:06:14;42.00;;;20.67;;
16246;SDS011;8231;50.866;7.944;2022-12-20T06:08:45;42.40;;;21.95;;
16246;SDS011;8231;50.866;7.944;2022-12-20T06:11:19;36.92;;;20.17;;
16246;SDS011;8231;50.866;7.944;2022-12-20T06:14:01;45.60;;;22.45;;
16246;SDS011;8231;50.866;7.944;2022-12-20T06:16:30;45.00;;;23.42;;
16246;SDS011;8231;50.866;7.944;2022-12-20T06:18:58;47.60;;;23.30;;
16246;SDS011;8231;50.866;7.944;2022-12-20T06:21:28;44.42;;;23.27;;
16246;SDS011;8231;50.866;7.944;2022-12-20T06:23:58;50.20;;;22.88;;
16246;SDS011;8231;50.866;7.944;2022-12-20T06:26:27;52.22;;;21.40;;
16246;SDS011;8231;50.866;7.944;2022-12-20T06:29:03;46.55;;;19.88;;
16246;SDS011;8231;50.866;7.944;2022-12-20T06:31:37;47.30;;;18.02;;
16246;SDS011;8231;50.866;7.944;2022-12-20T06:37:03;44.42;;;19.02;;
16246;SDS011;8231;50.866;7.944;2022-12-20T06:39:33;46.05;;;19.67;;
16246;SDS011;8231;50.866;7.944;2022-12-20T06:42:02;68.00;;;22.67;;
16246;SDS011;8231;50.866;7.944;2022-12-20T06:44:33;49.78;;;20.52;;
16246;SDS011;8231;50.866;7.944;2022-12-20T06:47:02;76.40;;;24.27;;
16246;SDS011;8231;50.866;7.944;2022-12-20T06:49:30;47.05;;;21.20;;
16246;SDS011;8231;50.866;7.944;2022-12-20T06:51:59;139.93;;;25.83;;
16246;SDS011;8231;50.866;7.944;2022-12-20T06:54:39;44.13;;;18.75;;
16246;SDS011;8231;50.866;7.944;2022-12-20T06:57:07;51.17;;;19.88;;
16246;SDS011;8231;50.866;7.944;2022-12-20T06:59:36;56.28;;;21.77;;
16246;SDS011;8231;50.866;7.944;2022-12-20T07:02:05;35.83;;;18.48;;
16246;SDS011;8231;50.866;7.944;2022-12-20T07:04:34;77.40;;;24.50;;
16246;SDS011;8231;50.866;7.944;2022-12-20T07:07:03;50.33;;;20.05;;
16246;SDS011;8231;50.866;7.944;2022-12-20T07:09:31;54.95;;;20.33;;
16246;SDS011;8231;50.866;7.944;2022-12-20T07:12:01;54.13;;;20.15;;
16246;SDS011;8231;50.866;7.944;2022-12-20T07:14:28;39.15;;;19.02;;
16246;SDS011;8231;50.866;7.944;2022-12-20T07:16:57;47.88;;;19.48;;
16246;SDS011;8231;50.866;7.944;2022-12-20T07:19:25;46.67;;;19.58;;
16246;SDS011;8231;50.866;7.944;2022-12-20T07:21:53;53.65;;;22.75;;
16246;SDS011;8231;50.866;7.944;2022-12-20T07:24:21;36.55;;;18.58;;
16246;SDS011;8231;50.866;7.944;2022-12-20T07:26:51;40.45;;;18.52;;
16246;SDS011;8231;50.866;7.944;2022-12-20T07:29:20;41.10;;;17.70;;
16246;SDS011;8231;50.866;7.944;2022-12-20T07:31:48;39.60;;;20.42;;
16246;SDS011;8231;50.866;7.944;2022-12-20T07:34:16;46.38;;;21.38;;
16246;SDS011;8231;50.866;7.944;2022-12-20T07:36:45;63.95;;;22.40;;
16246;SDS011;8231;50.866;7.944;2022-12-20T07:39:13;38.72;;;19.30;;
16246;SDS011;8231;50.866;7.944;2022-12-20T07:41:41;40.67;;;19.70;;
16246;SDS011;8231;50.866;7.944;2022-12-20T07:44:14;45.53;;;21.13;;
16246;SDS011;8231;50.866;7.944;2022-12-20T07:46:44;39.95;;;20.30;;
16246;SDS011;8231;50.866;7.944;2022-12-20T07:49:12;45.63;;;20.73;;
16246;SDS011;8231;50.866;7.944;2022-12-20T07:51:41;47.80;;;21.10;;
16246;SDS011;8231;50.866;7.944;2022-12-20T07:54:14;42.97;;;21.48;;
16246;SDS011;8231;50.866;7.944;2022-12-20T07:56:46;41.00;;;20.77;;
16246;SDS011;8231;50.866;7.944;2022-12-20T07:59:23;41.20;;;21.75;;
16246;SDS011;8231;50.866;7.944;2022-12-20T08:01:56;42.88;;;20.25;;
16246;SDS011;8231;50.866;7.944;2022-12-20T08:04:30;87.30;;;24.58;;
16246;SDS011;8231;50.866;7.944;2022-12-20T08:07:00;50.88;;;26.13;;
16246;SDS011;8231;50.866;7.944;2022-12-20T08:09:30;57.35;;;23.27;;
16246;SDS011;8231;50.866;7.944;2022-12-20T08:12:01;57.78;;;21.77;;
16246;SDS011;8231;50.866;7.944;2022-12-20T08:14:29;50.22;;;23.77;;
16246;SDS011;8231;50.866;7.944;2022-12-20T08:16:59;92.28;;;25.98;;
16246;SDS011;8231;50.866;7.944;2022-12-20T08:19:28;47.97;;;23.77;;
16246;SDS011;8231;50.866;7.944;2022-12-20T08:21:58;44.97;;;24.25;;
16246;SDS011;8231;50.866;7.944;2022-12-20T08:24:27;59.47;;;24.38;;
16246;SDS011;8231;50.866;7.944;2022-12-20T08:26:55;49.10;;;21.10;;
16246;SDS011;8231;50.866;7.944;2022-12-20T08:29:23;44.90;;;22.98;;
16246;SDS011;8231;50.866;7.944;2022-12-20T08:31:51;47.10;;;25.75;;
16246;SDS011;8231;50.866;7.944;2022-12-20T08:34:20;45.45;;;24.65;;
16246;SDS011;8231;50.866;7.944;2022-12-20T08:36:49;52.83;;;23.10;;
16246;SDS011;8231;50.866;7.944;2022-12-20T08:39:17;47.50;;;25.10;;
16246;SDS011;8231;50.866;7.944;2022-12-20T08:41:45;47.08;;;25.25;;
16246;SDS011;8231;50.866;7.944;2022-12-20T08:44:13;46.83;;;23.10;;
16246;SDS011;8231;50.866;7.944;2022-12-20T08:46:41;52.17;;;28.30;;
16246;SDS011;8231;50.866;7.944;2022-12-20T08:49:09;54.42;;;27.50;;
16246;SDS011;8231;50.866;7.944;2022-12-20T08:51:39;50.70;;;27.38;;
16246;SDS011;8231;50.866;7.944;2022-12-20T08:54:07;48.75;;;25.48;;
16246;SDS011;8231;50.866;7.944;2022-12-20T08:56:35;52.15;;;24.85;;
16246;SDS011;8231;50.866;7.944;2022-12-20T08:59:03;54.33;;;26.40;;
16246;SDS011;8231;50.866;7.944;2022-12-20T09:01:32;62.72;;;31.42;;
16246;SDS011;8231;50.866;7.944;2022-12-20T09:04:00;61.63;;;33.10;;
16246;SDS011;8231;50.866;7.944;2022-12-20T09:06:28;54.10;;;29.30;;
16246;SDS011;8231;50.866;7.944;2022-12-20T09:08:58;65.78;;;29.75;;
16246;SDS011;8231;50.866;7.944;2022-12-20T09:11:27;57.70;;;28.38;;
16246;SDS011;8231;50.866;7.944;2022-12-20T09:13:55;68.78;;;36.53;;
16246;SDS011;8231;50.866;7.944;2022-12-20T09:16:25;63.53;;;29.77;;
16246;SDS011;8231;50.866;7.944;2022-12-20T09:18:55;67.45;;;33.38;;
16246;SDS011;8231;50.866;7.944;2022-12-20T09:21:31;55.00;;;28.75;;
16246;SDS011;8231;50.866;7.944;2022-12-20T09:24:01;49.90;;;28.17;;
16246;SDS011;8231;50.866;7.944;2022-12-20T09:26:29;41.85;;;22.52;;
16246;SDS011;8231;50.866;7.944;2022-12-20T09:28:57;54.47;;;27.15;;
16246;SDS011;8231;50.866;7.944;2022-12-20T09:31:27;38.85;;;21.83;;
16246;SDS011;8231;50.866;7.944;2022-12-20T09:33:55;39.80;;;21.77;;
16246;SDS011;8231;50.866;7.944;2022-12-20T09:36:25;39.70;;;23.10;;
16246;SDS011;8231;50.866;7.944;2022-12-20T09:38:55;39.30;;;22.08;;
16246;SDS011;8231;50.866;7.944;2022-12-20T09:41:30;42.67;;;23.05;;
16246;SDS011;8231;50.866;7.944;2022-12-20T09:44:03;40.40;;;22.98;;
16246;SDS011;8231;50.866;7.944;2022-12-20T09:46:37;36.63;;;20.85;;
16246;SDS011;8231;50.866;7.944;2022-12-20T09:49:07;44.35;;;24.42;;
16246;SDS011;8231;50.866;7.944;2022-12-20T09:51:52;41.50;;;21.83;;
16246;SDS011;8231;50.866;7.944;2022-12-20T09:54:38;44.75;;;23.33;;
16246;SDS011;8231;50.866;7.944;2022-12-20T09:57:16;42.88;;;22.75;;
16246;SDS011;8231;50.866;7.944;2022-12-20T09:59:54;40.38;;;21.63;;
16246;SDS011;8231;50.866;7.944;2022-12-20T10:02:23;38.70;;;23.67;;
16246;SDS011;8231;50.866;7.944;2022-12-20T10:05:13;42.05;;;23.33;;
16246;SDS011;8231;50.866;7.944;2022-12-20T10:07:47;46.22;;;25.67;;
16246;SDS011;8231;50.866;7.944;2022-12-20T10:10:29;48.85;;;27.05;;
16246;SDS011;8231;50.866;7.944;2022-12-20T10:13:09;47.88;;;28.10;;
16246;SDS011;8231;50.866;7.944;2022-12-20T10:15:51;52.58;;;29.55;;
16246;SDS011;8231;50.866;7.944;2022-12-20T10:18:36;49.53;;;28.10;;
16246;SDS011;8231;50.866;7.944;2022-12-20T10:21:17;51.42;;;30.35;;
16246;SDS011;8231;50.866;7.944;2022-12-20T10:23:53;52.20;;;28.95;;
16246;SDS011;8231;50.866;7.944;2022-12-20T10:26:27;49.70;;;28.40;;
16246;SDS011;8231;50.866;7.944;2022-12-20T10:28:57;50.20;;;27.60;;
16246;SDS011;8231;50.866;7.944;2022-12-20T10:31:25;46.92;;;28.42;;
16246;SDS011;8231;50.866;7.944;2022-12-20T10:33:54;51.35;;;28.25;;
16246;SDS011;8231;50.866;7.944;2022-12-20T10:36:23;41.85;;;26.10;;
16246;SDS011;8231;50.866;7.944;2022-12-20T10:38:53;46.60;;;27.58;;
16246;SDS011;8231;50.866;7.944;2022-12-20T10:41:23;67.93;;;41.60;;
16246;SDS011;8231;50.866;7.944;2022-12-20T10:43:54;53.33;;;31.92;;
16246;SDS011;8231;50.866;7.944;2022-12-20T10:46:36;46.40;;;28.20;;
16246;SDS011;8231;50.866;7.944;2022-12-20T10:49:20;38.15;;;26.00;;
16246;SDS011;8231;50.866;7.944;2022-12-20T10:51:53;49.33;;;27.88;;
16246;SDS011;8231;50.866;7.944;2022-12-20T10:54:24;38.35;;;23.23;;
16246;SDS011;8231;50.866;7.944;2022-12-20T10:56:57;34.72;;;21.95;;
16246;SDS011;8231;50.866;7.944;2022-12-20T10:59:30;47.55;;;26.88;;
16246;SDS011;8231;50.866;7.944;2022-12-20T11:02:01;38.38;;;23.50;;
16246;SDS011;8231;50.866;7.944;2022-12-20T11:04:55;37.67;;;22.88;;
16246;SDS011;8231;50.866;7.944;2022-12-20T11:07:27;34.45;;;23.05;;
16246;SDS011;8231;50.866;7.944;2022-12-20T11:09:57;43.75;;;29.92;;
16246;SDS011;8231;50.866;7.944;2022-12-20T11:12:26;41.75;;;24.85;;
16246;SDS011;8231;50.866;7.944;2022-12-20T11:15:07;37.35;;;23.45;;
16246;SDS011;8231;50.866;7.944;2022-12-20T11:18:01;38.28;;;25.17;;
16246;SDS011;8231;50.866;7.944;2022-12-20T11:20:34;40.10;;;25.90;;
16246;SDS011;8231;50.866;7.944;2022-12-20T11:23:10;41.97;;;26.05;;
16246;SDS011;8231;50.866;7.944;2022-12-20T11:25:52;36.03;;;24.83;;
16246;SDS011;8231;50.866;7.944;2022-12-20T11:28:38;40.78;;;28.08;;
16246;SDS011;8231;50.866;7.944;2022-12-20T11:31:19;35.05;;;22.00;;
16246;SDS011;8231;50.866;7.944;2022-12-20T11:34:07;29.98;;;20.10;;
16246;SDS011;8231;50.866;7.944;2022-12-20T11:36:50;44.70;;;26.00;;
16246;SDS011;8231;50.866;7.944;2022-12-20T11:39:31;40.00;;;29.27;;
16246;SDS011;8231;50.866;7.944;2022-12-20T11:42:05;45.08;;;32.08;;
16246;SDS011;8231;50.866;7.944;2022-12-20T11:44:46;47.50;;;32.00;;
16246;SDS011;8231;50.866;7.944;2022-12-20T11:47:41;49.78;;;31.25;;
16246;SDS011;8231;50.866;7.944;2022-12-20T11:50:35;41.38;;;29.00;;
16246;SDS011;8231;50.866;7.944;2022-12-20T11:53:12;36.42;;;25.45;;
16246;SDS011;8231;50.866;7.944;2022-12-20T11:55:47;42.05;;;26.67;;
16246;SDS011;8231;50.866;7.944;2022-12-20T11:58:19;45.05;;;28.83;;
16246;SDS011;8231;50.866;7.944;2022-12-20T12:00:52;43.15;;;29.05;;
16246;SDS011;8231;50.866;7.944;2022-12-20T12:03:27;43.47;;;30.23;;
16246;SDS011;8231;50.866;7.944;2022-12-20T12:06:01;41.22;;;29.23;;
16246;SDS011;8231;50.866;7.944;2022-12-20T12:08:34;43.22;;;31.25;;
16246;SDS011;8231;50.866;7.944;2022-12-20T12:11:13;44.33;;;29.35;;
16246;SDS011;8231;50.866;7.944;2022-12-20T12:14:04;43.80;;;24.65;;
16246;SDS011;8231;50.866;7.944;2022-12-20T12:16:34;39.25;;;26.15;;
16246;SDS011;8231;50.866;7.944;2022-12-20T12:19:08;43.25;;;25.92;;
16246;SDS011;8231;50.866;7.944;2022-12-20T12:21:39;41.08;;;27.58;;
16246;SDS011;8231;50.866;7.944;2022-12-20T12:24:12;43.95;;;31.08;;
16246;SDS011;8231;50.866;7.944;2022-12-20T12:26:48;43.13;;;23.58;;
16246;SDS011;8231;50.866;7.944;2022-12-20T12:29:17;43.58;;;24.17;;
16246;SDS011;8231;50.866;7.944;2022-12-20T12:31:47;45.80;;;32.13;;
16246;SDS011;8231;50.866;7.944;2022-12-20T12:34:35;46.42;;;32.85;;
16246;SDS011;8231;50.866;7.944;2022-12-20T12:43:30;39.17;;;29.77;;
16246;SDS011;8231;50.866;7.944;2022-12-20T12:46:14;45.05;;;26.45;;
16246;SDS011;8231;50.866;7.944;2022-12-20T12:48:47;42.80;;;27.40;;
16246;SDS011;8231;50.866;7.944;2022-12-20T12:51:23;37.10;;;24.55;;
16246;SDS011;8231;50.866;7.944;2022-12-20T12:54:02;27.85;;;17.80;;
16246;SDS011;8231;50.866;7.944;2022-12-20T12:56:40;34.65;;;23.55;;
16246;SDS011;8231;50.866;7.944;2022-12-20T13:02:24;33.17;;;21.52;;
16246;SDS011;8231;50.866;7.944;2022-12-20T13:05:00;43.47;;;29.88;;
16246;SDS011;8231;50.866;7.944;2022-12-20T13:07:52;36.33;;;24.60;;
16246;SDS011;8231;50.866;7.944;2022-12-20T13:13:23;19.45;;;15.15;;
16246;SDS011;8231;50.866;7.944;2022-12-20T13:15:52;21.40;;;15.82;;
16246;SDS011;8231;50.866;7.944;2022-12-20T13:19:13;19.42;;;14.77;;
16246;SDS011;8231;50.866;7.944;2022-12-20T13:21:43;21.95;;;14.48;;
16246;SDS011;8231;50.866;7.944;2022-12-20T13:27:27;23.67;;;18.65;;
16246;SDS011;8231;50.866;7.944;2022-12-20T13:35:58;23.50;;;18.00;;
16246;SDS011;8231;50.866;7.944;2022-12-20T13:41:26;25.90;;;19.95;;
16246;SDS011;8231;50.866;7.944;2022-12-20T13:46:56;22.40;;;19.65;;
16246;SDS011;8231;50.866;7.944;2022-12-20T13:49:28;26.95;;;19.80;;
16246;SDS011;8231;50.866;7.944;2022-12-20T13:52:16;24.67;;;19.25;;
16246;SDS011;8231;50.866;7.944;2022-12-20T13:54:54;27.90;;;23.20;;
16246;SDS011;8231;50.866;7.944;2022-12-20T13:57:28;47.75;;;36.45;;
16246;SDS011;8231;50.866;7.944;2022-12-20T13:59:59;40.90;;;31.65;;
16246;SDS011;8231;50.866;7.944;2022-12-20T14:02:34;38.45;;;28.83;;
16246;SDS011;8231;50.866;7.944;2022-12-20T14:05:13;36.33;;;28.13;;
16246;SDS011;8231;50.866;7.944;2022-12-20T14:07:45;36.63;;;30.08;;
16246;SDS011;8231;50.866;7.944;2022-12-20T14:10:16;38.50;;;27.02;;
16246;SDS011;8231;50.866;7.944;2022-12-20T14:12:49;34.75;;;27.27;;
16246;SDS011;8231;50.866;7.944;2022-12-20T14:15:26;31.83;;;26.20;;
16246;SDS011;8231;50.866;7.944;2022-12-20T14:17:55;28.27;;;23.38;;
16246;SDS011;8231;50.866;7.944;2022-12-20T14:20:25;34.85;;;26.20;;
16246;SDS011;8231;50.866;7.944;2022-12-20T14:22:58;31.40;;;24.00;;
16246;SDS011;8231;50.866;7.944;2022-12-20T14:25:33;34.47;;;25.55;;
16246;SDS011;8231;50.866;7.944;2022-12-20T14:28:05;32.78;;;23.77;;
16246;SDS011;8231;50.866;7.944;2022-12-20T14:30:52;27.75;;;22.77;;
16246;SDS011;8231;50.866;7.944;2022-12-20T14:33:24;32.58;;;23.38;;
16246;SDS011;8231;50.866;7.944;2022-12-20T14:36:05;31.77;;;23.02;;
16246;SDS011;8231;50.866;7.944;2022-12-20T14:38:35;28.23;;;23.88;;
16246;SDS011;8231;50.866;7.944;2022-12-20T14:41:23;34.35;;;27.55;;
16246;SDS011;8231;50.866;7.944;2022-12-20T14:44:02;50.22;;;33.63;;
16246;SDS011;8231;50.866;7.944;2022-12-20T14:46:39;44.35;;;26.40;;
16246;SDS011;8231;50.866;7.944;2022-12-20T14:49:16;31.85;;;22.48;;
16246;SDS011;8231;50.866;7.944;2022-12-20T14:51:48;36.60;;;22.77;;
16246;SDS011;8231;50.866;7.944;2022-12-20T14:54:17;37.65;;;24.85;;
16246;SDS011;8231;50.866;7.944;2022-12-20T14:57:09;29.98;;;21.17;;
16246;SDS011;8231;50.866;7.944;2022-12-20T14:59:45;32.50;;;21.00;;
16246;SDS011;8231;50.866;7.944;2022-12-20T15:02:30;28.20;;;19.05;;
16246;SDS011;8231;50.866;7.944;2022-12-20T15:05:06;27.67;;;18.88;;
16246;SDS011;8231;50.866;7.944;2022-12-20T15:07:38;25.05;;;17.48;;
16246;SDS011;8231;50.866;7.944;2022-12-20T15:10:07;27.30;;;22.33;;
16246;SDS011;8231;50.866;7.944;2022-12-20T15:12:35;30.33;;;19.65;;
16246;SDS011;8231;50.866;7.944;2022-12-20T15:15:11;25.42;;;15.95;;
16246;SDS011;8231;50.866;7.944;2022-12-20T15:17:56;26.73;;;16.77;;
16246;SDS011;8231;50.866;7.944;2022-12-20T15:20:24;24.40;;;16.92;;
16246;SDS011;8231;50.866;7.944;2022-12-20T15:22:52;28.17;;;17.25;;
16246;SDS011;8231;50.866;7.944;2022-12-20T15:25:20;21.63;;;16.42;;
16246;SDS011;8231;50.866;7.944;2022-12-20T15:27:48;23.60;;;17.15;;
16246;SDS011;8231;50.866;7.944;2022-12-20T15:30:18;25.63;;;17.60;;
16246;SDS011;8231;50.866;7.944;2022-12-20T15:32:46;27.80;;;16.90;;
16246;SDS011;8231;50.866;7.944;2022-12-20T15:35:21;28.52;;;19.00;;
16246;SDS011;8231;50.866;7.944;2022-12-20T15:37:50;30.40;;;22.52;;
16246;SDS011;8231;50.866;7.944;2022-12-20T15:40:19;29.55;;;21.60;;
16246;SDS011;8231;50.866;7.944;2022-12-20T15:42:47;37.38;;;29.17;;